Time;durP1;ratioP1;P1;durP2;ratioP2;P2;SDS_P1;SDS_P2;PMS_P1;PMS_P2;Temp;Humidity;BMP_temperature;BMP_pressure;BME280_temperature;BME280_humidity;BME280_pressure;Samples;Min_cycle;Max_cycle;Signal;HPM_P1;HPM_P2
2022/04/04 00:00:53;;;;;;;13.23;6.10;;;0.90;87.30;;;;;;5023170;28;20053;-73
2022/04/04 00:03:20;;;;;;;12.77;5.63;;;0.80;86.90;;;;;;5046571;28;20044;-73
2022/04/04 00:05:48;;;;;;;10.80;6.00;;;0.80;86.90;;;;;;5038246;28;20060;-73
2022/04/04 00:08:15;;;;;;;17.38;7.60;;;0.80;86.90;;;;;;5041238;28;20095;-73
2022/04/04 00:10:42;;;;;;;16.00;7.20;;;0.70;87.10;;;;;;5040269;28;20041;-73
2022/04/04 00:13:09;;;;;;;26.10;8.63;;;0.60;87.40;;;;;;5041352;28;20044;-73
2022/04/04 00:15:36;;;;;;;21.77;9.95;;;0.60;88.00;;;;;;5035875;28;20171;-73
2022/04/04 00:18:10;;;;;;;12.27;6.10;;;0.70;87.80;;;;;;5036767;28;20051;-73
2022/04/04 00:20:39;;;;;;;12.18;5.82;;;0.70;86.80;;;;;;5035739;28;20045;-73
2022/04/04 00:23:12;;;;;;;12.75;5.20;;;0.70;86.50;;;;;;5045217;28;20416;-73
2022/04/04 00:25:39;;;;;;;;;;;0.60;86.40;;;;;;5035053;28;20057;-73
2022/04/04 00:28:06;;;;;;;12.02;5.07;;;0.60;86.10;;;;;;5043470;28;19935;-73
2022/04/04 00:30:33;;;;;;;10.07;4.75;;;0.60;86.00;;;;;;5039460;28;20056;-73
2022/04/04 00:33:01;;;;;;;11.52;4.72;;;0.60;85.40;;;;;;5039675;28;20395;-73
2022/04/04 00:35:29;;;;;;;9.07;4.35;;;0.60;85.50;;;;;;5038623;28;20357;-73
2022/04/04 00:38:01;;;;;;;12.10;4.85;;;0.60;85.70;;;;;;5039699;28;20499;-73
2022/04/04 00:40:28;;;;;;;9.90;4.18;;;0.70;85.20;;;;;;5022191;28;20056;-73
2022/04/04 00:42:56;;;;;;;12.60;5.35;;;0.70;84.80;;;;;;5035501;28;20056;-73
2022/04/04 00:45:23;;;;;;;11.05;4.85;;;0.70;84.60;;;;;;5039640;28;22301;-73
2022/04/04 00:47:50;;;;;;;10.57;4.88;;;0.60;84.90;;;;;;5042052;28;20088;-73
2022/04/04 00:50:17;;;;;;;9.13;4.35;;;0.60;84.20;;;;;;5044240;28;20048;-73
2022/04/04 00:52:44;;;;;;;8.90;4.13;;;0.60;84.50;;;;;;5037980;28;20410;-73
2022/04/04 00:55:11;;;;;;;9.07;4.68;;;0.60;84.50;;;;;;5022071;28;21053;-73
2022/04/04 00:57:39;;;;;;;7.53;3.55;;;0.60;84.30;;;;;;5039328;28;20056;-73
2022/04/04 01:00:09;;;;;;;8.20;3.92;;;0.60;83.90;;;;;;5038869;28;20439;-73
2022/04/04 01:02:37;;;;;;;8.40;3.75;;;0.60;84.40;;;;;;5042073;28;20048;-73
2022/04/04 01:05:05;;;;;;;9.38;3.95;;;0.60;83.70;;;;;;5036382;28;20135;-73
2022/04/04 01:07:32;;;;;;;9.70;3.75;;;0.50;83.50;;;;;;5038254;28;20065;-73
2022/04/04 01:09:59;;;;;;;7.95;3.47;;;0.50;83.80;;;;;;5039498;28;20514;-73
2022/04/04 01:12:26;;;;;;;9.73;4.50;;;0.40;83.80;;;;;;5038215;28;20598;-73
2022/04/04 01:14:53;;;;;;;6.82;3.78;;;0.50;83.70;;;;;;5038171;28;20037;-73
2022/04/04 01:17:27;;;;;;;10.70;4.10;;;0.40;83.50;;;;;;5032983;28;20094;-73
2022/04/04 01:19:56;;;;;;;12.88;4.60;;;0.40;84.00;;;;;;5033698;28;20037;-73
2022/04/04 01:22:24;;;;;;;10.32;4.45;;;0.40;84.20;;;;;;5017339;28;20491;-73
2022/04/04 01:24:51;;;;;;;8.10;3.03;;;0.50;83.70;;;;;;5037207;28;22258;-73
2022/04/04 01:27:19;;;;;;;8.38;3.72;;;0.50;83.30;;;;;;5041791;28;20072;-73
2022/04/04 01:29:47;;;;;;;6.75;3.30;;;0.40;83.60;;;;;;5039329;28;20041;-73
2022/04/04 01:32:14;;;;;;;8.05;4.10;;;0.40;83.70;;;;;;5036039;28;20498;-73
2022/04/04 01:34:41;;;;;;;9.18;3.38;;;0.40;83.70;;;;;;5038867;28;20124;-74
2022/04/04 01:37:08;;;;;;;9.60;3.63;;;0.40;83.80;;;;;;5034013;28;20044;-73
2022/04/04 01:39:35;;;;;;;12.43;4.53;;;0.40;83.30;;;;;;5037814;28;20048;-74
2022/04/04 01:42:02;;;;;;;7.38;3.22;;;0.30;83.50;;;;;;5028642;28;20076;-73
2022/04/04 01:44:30;;;;;;;10.68;3.72;;;0.30;83.70;;;;;;5038799;28;20048;-73
2022/04/04 01:46:58;;;;;;;11.55;4.38;;;0.40;84.10;;;;;;5038600;28;20041;-73
2022/04/04 01:49:25;;;;;;;13.25;5.18;;;0.30;84.10;;;;;;5036475;28;20049;-73
2022/04/04 01:51:52;;;;;;;11.63;4.45;;;0.40;84.30;;;;;;5039450;28;20053;-73
2022/04/04 01:54:19;;;;;;;9.10;4.10;;;0.40;84.80;;;;;;5039764;28;20560;-73
2022/04/04 01:56:46;;;;;;;12.77;4.00;;;0.40;84.30;;;;;;5038837;28;20029;-73
2022/04/04 01:59:13;;;;;;;11.45;4.53;;;0.40;83.90;;;;;;5034017;28;20051;-73
2022/04/04 02:01:41;;;;;;;8.77;4.20;;;0.40;84.10;;;;;;5039123;28;20655;-73
2022/04/04 02:04:11;;;;;;;10.38;4.15;;;0.50;84.20;;;;;;5038827;28;20503;-73
2022/04/04 02:06:39;;;;;;;9.05;3.88;;;0.40;83.70;;;;;;5040162;28;20037;-73
2022/04/04 02:09:07;;;;;;;9.05;4.07;;;0.40;84.80;;;;;;5040589;28;20044;-73
2022/04/04 02:11:34;;;;;;;7.47;3.58;;;0.40;83.90;;;;;;5038407;28;20055;-73
2022/04/04 02:14:02;;;;;;;10.05;4.07;;;0.30;84.00;;;;;;5039432;28;21641;-73
2022/04/04 02:16:29;;;;;;;7.82;3.25;;;0.30;84.10;;;;;;5031987;28;20049;-73
2022/04/04 02:18:56;;;;;;;10.73;4.80;;;0.40;83.90;;;;;;5030625;28;20183;-73
2022/04/04 02:21:24;;;;;;;7.78;3.60;;;0.30;83.90;;;;;;5034212;28;20577;-73
2022/04/04 02:23:52;;;;;;;9.18;4.03;;;0.30;84.60;;;;;;5037754;28;20041;-73
2022/04/04 02:26:20;;;;;;;9.05;3.97;;;0.30;84.70;;;;;;5031993;28;20614;-73
2022/04/04 02:28:47;;;;;;;12.23;4.03;;;0.30;85.20;;;;;;5034076;28;20422;-73
2022/04/04 02:31:14;;;;;;;9.27;4.10;;;0.20;84.80;;;;;;5029298;28;20033;-73
2022/04/04 02:33:42;;;;;;;12.73;4.57;;;0.20;85.70;;;;;;5034669;28;20450;-73
2022/04/04 02:36:09;;;;;;;8.85;4.40;;;0.20;84.80;;;;;;5016602;28;20045;-73
2022/04/04 02:38:36;;;;;;;11.18;4.40;;;0.20;85.30;;;;;;5037587;28;20123;-73
2022/04/04 02:41:04;;;;;;;8.25;3.25;;;0.20;86.60;;;;;;5037998;28;20451;-73
2022/04/04 02:43:32;;;;;;;10.15;5.00;;;0.20;86.80;;;;;;5034429;28;20118;-73
2022/04/04 02:45:59;;;;;;;9.57;3.72;;;0.30;87.50;;;;;;5036908;28;20049;-73
2022/04/04 02:48:26;;;;;;;8.63;4.00;;;0.30;87.50;;;;;;5042848;28;20060;-73
2022/04/04 02:50:53;;;;;;;7.15;3.53;;;0.30;87.00;;;;;;5042395;28;20033;-73
2022/04/04 02:53:21;;;;;;;8.05;3.75;;;0.30;86.20;;;;;;5037688;28;20049;-74
2022/04/04 02:58:35;;;;;;;14.65;5.22;;;0.20;84.90;;;;;;5035226;28;20052;-73
2022/04/04 03:01:03;;;;;;;19.40;9.52;;;0.20;85.30;;;;;;5050919;28;20577;-73
2022/04/04 03:03:30;;;;;;;23.20;9.93;;;0.20;84.90;;;;;;5038511;28;20052;-73
2022/04/04 03:05:57;;;;;;;26.13;11.63;;;0.10;84.50;;;;;;5039579;28;20527;-73
2022/04/04 03:08:24;;;;;;;23.45;10.85;;;0.10;84.40;;;;;;5039037;28;20060;-73
2022/04/04 03:10:52;;;;;;;14.32;6.13;;;0.10;84.40;;;;;;5034500;28;20037;-73
2022/04/04 03:13:19;;;;;;;17.95;7.60;;;0.00;84.40;;;;;;5022832;28;20182;-73
2022/04/04 03:15:46;;;;;;;20.42;9.10;;;0.00;84.00;;;;;;5034694;28;20062;-73
2022/04/04 03:18:13;;;;;;;28.77;12.00;;;0.00;84.30;;;;;;5046388;28;20041;-73
2022/04/04 03:20:40;;;;;;;27.13;11.60;;;0.10;84.50;;;;;;5031910;28;20102;-73
2022/04/04 03:23:07;;;;;;;37.15;15.35;;;0.10;83.80;;;;;;5047940;28;20048;-73
2022/04/04 03:25:35;;;;;;;49.33;21.05;;;0.10;83.60;;;;;;5035312;28;20042;-73
2022/04/04 03:28:02;;;;;;;48.75;19.52;;;0.10;83.80;;;;;;5038265;28;20044;-73
2022/04/04 03:30:29;;;;;;;53.63;20.80;;;0.10;83.20;;;;;;5035585;28;20048;-73
2022/04/04 03:32:57;;;;;;;51.10;20.45;;;0.10;82.80;;;;;;5039261;28;20584;-73
2022/04/04 03:35:29;;;;;;;67.13;24.30;;;0.10;82.90;;;;;;5034018;28;20099;-73
2022/04/04 03:37:59;;;;;;;51.17;19.17;;;0.10;82.90;;;;;;5035845;28;20041;-73
2022/04/04 03:40:27;;;;;;;92.40;31.58;;;0.10;83.30;;;;;;5035385;28;20099;-73
2022/04/04 03:42:55;;;;;;;98.57;35.45;;;0.10;82.90;;;;;;5035945;28;20498;-73
2022/04/04 03:45:24;;;;;;;110.10;39.00;;;0.10;83.30;;;;;;5035265;28;20041;-73
2022/04/04 03:47:53;;;;;;;100.75;38.67;;;0.10;83.50;;;;;;5035498;28;20110;-73
2022/04/04 03:50:20;;;;;;;71.13;28.77;;;0.00;83.40;;;;;;5037105;28;20849;-73
2022/04/04 03:52:52;;;;;;;59.47;25.70;;;0.00;83.60;;;;;;5037852;28;20037;-73
2022/04/04 03:55:32;;;;;;;51.15;21.13;;;0.00;85.20;;;;;;5037710;28;20049;-73
2022/04/04 03:58:00;;;;;;;37.85;16.13;;;0.00;86.80;;;;;;5031211;28;20037;-73
2022/04/04 04:00:28;;;;;;;33.25;14.30;;;-0.10;87.60;;;;;;5036924;28;20834;-73
2022/04/04 04:02:55;;;;;;;26.25;10.98;;;-0.10;89.30;;;;;;5039012;28;20040;-73
2022/04/04 04:05:23;;;;;;;25.40;12.88;;;0.00;88.40;;;;;;5037666;28;20049;-73
2022/04/04 04:07:52;;;;;;;40.00;17.77;;;-0.10;87.00;;;;;;5038385;28;20052;-74
2022/04/04 04:10:19;;;;;;;33.10;15.05;;;-0.10;87.50;;;;;;5020997;28;20049;-73
2022/04/04 04:12:47;;;;;;;35.95;16.70;;;-0.10;89.00;;;;;;5038417;28;20048;-73
2022/04/04 04:15:21;;;;;;;27.90;11.48;;;-0.20;88.50;;;;;;5037829;28;20037;-74
2022/04/04 04:17:51;;;;;;;29.08;11.75;;;-0.10;86.70;;;;;;5041255;28;20107;-74
2022/04/04 04:20:20;;;;;;;33.83;12.15;;;-0.10;86.10;;;;;;5040753;28;20053;-73
2022/04/04 04:22:54;;;;;;;40.22;13.63;;;-0.20;85.40;;;;;;5039487;28;20053;-73
2022/04/04 04:25:23;;;;;;;39.00;13.68;;;-0.20;85.30;;;;;;5037529;28;20052;-73
2022/04/04 04:27:51;;;;;;;35.85;11.95;;;-0.20;84.30;;;;;;5034313;28;20036;-73
2022/04/04 04:30:18;;;;;;;30.85;10.65;;;-0.20;83.50;;;;;;5037004;28;20052;-73
2022/04/04 04:32:48;;;;;;;25.35;10.35;;;-0.20;84.10;;;;;;5039952;28;20045;-73
2022/04/04 04:35:17;;;;;;;20.85;8.63;;;-0.20;83.80;;;;;;5034234;28;20400;-73
2022/04/04 04:37:45;;;;;;;24.40;8.82;;;-0.20;84.90;;;;;;5037509;28;22289;-73
2022/04/04 04:40:14;;;;;;;22.77;8.13;;;-0.20;87.50;;;;;;5032743;28;20048;-73
2022/04/04 04:42:44;;;;;;;19.20;7.15;;;-0.20;89.50;;;;;;5027921;28;20045;-73
2022/04/04 04:45:12;;;;;;;19.48;8.35;;;-0.20;90.30;;;;;;5040185;28;20052;-73
2022/04/04 04:47:40;;;;;;;17.73;6.97;;;-0.20;90.70;;;;;;5040720;28;20470;-73
2022/04/04 04:50:12;;;;;;;15.05;6.72;;;-0.20;91.60;;;;;;5038879;28;20483;-73
2022/04/04 04:52:40;;;;;;;16.00;7.50;;;-0.30;92.30;;;;;;5040655;28;20040;-73
2022/04/04 04:55:09;;;;;;;22.13;9.02;;;-0.30;92.40;;;;;;5040537;28;20036;-74
2022/04/04 04:57:37;;;;;;;23.27;8.30;;;-0.30;92.40;;;;;;5053164;28;20399;-73
2022/04/04 05:00:07;;;;;;;24.33;8.43;;;-0.40;92.40;;;;;;5038599;28;20045;-73
2022/04/04 05:02:34;;;;;;;18.00;8.05;;;-0.30;91.90;;;;;;5002015;28;20045;-72
2022/04/04 05:05:04;;;;;;;13.43;6.25;;;-0.30;91.20;;;;;;4997947;28;20236;-73
2022/04/04 05:07:32;;;;;;;21.63;9.40;;;-0.30;90.60;;;;;;4992313;28;20064;-73
2022/04/04 05:09:59;;;;;;;23.02;8.93;;;-0.30;89.80;;;;;;5002753;28;20424;-73
2022/04/04 05:12:26;;;;;;;20.13;8.02;;;-0.30;90.00;;;;;;5005107;28;20049;-73
2022/04/04 05:14:54;;;;;;;16.67;7.13;;;-0.20;91.10;;;;;;4995650;28;20052;-73
2022/04/04 05:17:20;;;;;;;15.63;6.47;;;-0.30;92.70;;;;;;4989059;28;20040;-73
2022/04/04 05:19:47;;;;;;;15.52;6.35;;;-0.30;92.50;;;;;;4997109;28;20080;-73
2022/04/04 05:22:14;;;;;;;14.05;5.82;;;-0.30;92.60;;;;;;5004318;28;20072;-73
2022/04/04 05:24:42;;;;;;;18.70;7.45;;;-0.10;92.50;;;;;;5001391;28;20083;-73
2022/04/04 05:27:09;;;;;;;15.57;7.03;;;-0.20;91.60;;;;;;4999409;28;20053;-74
2022/04/04 05:29:37;;;;;;;15.30;5.50;;;-0.10;91.50;;;;;;4998160;28;20041;-73
2022/04/04 05:32:04;;;;;;;16.67;6.35;;;0.00;91.00;;;;;;4990368;28;20057;-73
2022/04/04 05:34:31;;;;;;;13.00;5.20;;;0.00;91.40;;;;;;4999943;28;22499;-73
2022/04/04 05:36:59;;;;;;;12.90;5.70;;;0.00;90.80;;;;;;4999542;28;22819;-73
2022/04/04 05:39:27;;;;;;;14.73;6.80;;;0.10;91.20;;;;;;5002352;28;20785;-73
2022/04/04 05:41:54;;;;;;;19.75;6.80;;;0.10;90.00;;;;;;5016809;28;20416;-73
2022/04/04 05:44:21;;;;;;;16.83;6.45;;;0.20;88.90;;;;;;4999807;28;20915;-73
2022/04/04 05:46:48;;;;;;;15.68;6.85;;;0.20;87.80;;;;;;5000993;28;20063;-73
2022/04/04 05:49:15;;;;;;;18.50;6.78;;;0.30;87.40;;;;;;5002813;28;20094;-72
2022/04/04 05:51:43;;;;;;;16.90;6.50;;;0.30;86.30;;;;;;5000206;28;20048;-73
2022/04/04 05:54:31;;;;;;;14.55;5.90;;;0.40;86.60;;;;;;4999257;28;20044;-73
2022/04/04 05:56:58;;;;;;;14.05;5.97;;;0.50;86.40;;;;;;4997867;28;20041;-73
2022/04/04 05:59:25;;;;;;;17.65;7.35;;;0.60;85.30;;;;;;5004974;28;20045;-73
2022/04/04 06:01:52;;;;;;;13.48;5.88;;;0.60;85.50;;;;;;5010726;28;20048;-73
2022/04/04 06:04:20;;;;;;;6.80;3.20;;;0.70;82.10;;;;;;4997340;28;22512;-73
2022/04/04 06:06:47;;;;;;;8.55;3.08;;;0.80;76.60;;;;;;4996918;28;20199;-73
2022/04/04 06:09:14;;;;;;;9.90;4.57;;;1.00;76.90;;;;;;5002859;28;20049;-73
2022/04/04 06:11:42;;;;;;;12.70;4.95;;;1.10;80.80;;;;;;5012430;28;20089;-73
2022/04/04 06:14:09;;;;;;;10.90;4.40;;;1.20;80.60;;;;;;4998022;28;22630;-73
2022/04/04 06:16:36;;;;;;;11.75;4.63;;;1.40;79.60;;;;;;4989380;28;20613;-72
2022/04/04 06:19:03;;;;;;;29.10;8.98;;;1.50;77.20;;;;;;4998909;28;20045;-73
2022/04/04 06:21:31;;;;;;;50.55;15.55;;;1.60;77.50;;;;;;5002610;28;20080;-73
2022/04/04 06:23:58;;;;;;;28.42;10.63;;;1.70;76.20;;;;;;5013200;28;20053;-73
2022/04/04 06:26:26;;;;;;;9.88;4.97;;;1.90;76.80;;;;;;5012183;28;20800;-73
2022/04/04 06:28:54;;;;;;;21.75;12.00;;;2.00;75.10;;;;;;4999127;28;20075;-72
2022/04/04 06:31:21;;;;;;;19.00;10.98;;;2.10;75.20;;;;;;4996890;28;20049;-73
2022/04/04 06:33:48;;;;;;;9.27;5.30;;;2.30;75.00;;;;;;4985362;28;21957;-73
2022/04/04 06:36:16;;;;;;;10.00;4.50;;;2.40;72.80;;;;;;4995227;28;20053;-72
2022/04/04 06:38:42;;;;;;;10.07;4.68;;;2.50;72.50;;;;;;5011625;28;22780;-73
2022/04/04 06:41:11;;;;;;;17.20;7.93;;;2.60;72.70;;;;;;4999475;28;20057;-72
2022/04/04 06:43:38;;;;;;;459.42;128.75;;;2.60;72.30;;;;;;4998852;28;20057;-72
2022/04/04 06:46:06;;;;;;;72.32;27.92;;;2.80;72.80;;;;;;4999403;28;20083;-73
2022/04/04 06:48:33;;;;;;;91.75;34.97;;;2.90;73.30;;;;;;5001328;28;22497;-72
2022/04/04 06:51:01;;;;;;;13.30;6.57;;;3.10;73.60;;;;;;5004221;28;20064;-72
2022/04/04 06:53:28;;;;;;;45.15;18.00;;;3.20;72.90;;;;;;5000073;28;20893;-73
2022/04/04 06:55:56;;;;;;;21.27;11.02;;;3.30;75.00;;;;;;4997267;28;20048;-73
2022/04/04 06:58:26;;;;;;;17.20;7.68;;;3.40;74.40;;;;;;4993746;28;20064;-72
2022/04/04 07:00:53;;;;;;;104.20;34.75;;;3.50;74.80;;;;;;4995933;28;20057;-73
2022/04/04 07:03:20;;;;;;;28.63;11.65;;;3.60;75.00;;;;;;4998747;28;20046;-72
2022/04/04 07:05:48;;;;;;;14.88;7.22;;;3.70;72.70;;;;;;4995228;28;20061;-73
2022/04/04 07:08:15;;;;;;;11.02;4.90;;;3.80;73.60;;;;;;4978452;28;20063;-73
2022/04/04 07:10:43;;;;;;;10.52;5.40;;;3.80;69.60;;;;;;4997646;28;20178;-72
2022/04/04 07:13:10;;;;;;;12.13;5.00;;;4.00;68.20;;;;;;4997252;28;22531;-73
2022/04/04 07:15:37;;;;;;;8.05;4.35;;;4.00;70.00;;;;;;4999023;28;20044;-73
2022/04/04 07:18:04;;;;;;;11.23;5.43;;;4.10;67.20;;;;;;4998934;28;20636;-73
2022/04/04 07:20:32;;;;;;;10.48;4.95;;;4.30;71.20;;;;;;5005840;28;20056;-72
2022/04/04 07:22:59;;;;;;;11.05;4.82;;;4.20;67.50;;;;;;5000826;28;20064;-73
2022/04/04 07:25:28;;;;;;;8.20;5.35;;;4.20;68.20;;;;;;4999295;28;20100;-73
2022/04/04 07:27:55;;;;;;;11.55;4.97;;;4.50;69.20;;;;;;4990938;28;20053;-73
2022/04/04 07:30:23;;;;;;;8.57;4.95;;;4.40;66.40;;;;;;5013327;28;20680;-73
2022/04/04 07:32:51;;;;;;;8.77;3.28;;;4.70;63.50;;;;;;4998267;28;20041;-73
2022/04/04 07:35:20;;;;;;;14.70;9.15;;;4.70;61.20;;;;;;4997294;28;20216;-73
2022/04/04 07:37:50;;;;;;;7.28;3.90;;;4.70;59.50;;;;;;4996050;28;21550;-73
2022/04/04 07:40:19;;;;;;;6.88;2.85;;;5.00;58.90;;;;;;5000831;28;20060;-73
2022/04/04 07:42:47;;;;;;;5.93;3.25;;;4.80;58.30;;;;;;5000894;28;20827;-73
2022/04/04 07:45:16;;;;;;;9.63;4.97;;;4.80;57.60;;;;;;5018932;28;20053;-73
2022/04/04 07:47:43;;;;;;;35.25;19.65;;;5.10;59.80;;;;;;5002784;28;22362;-72
2022/04/04 07:50:13;;;;;;;7.40;2.80;;;5.30;56.30;;;;;;5007164;28;20049;-73
2022/04/04 07:52:40;;;;;;;5.05;3.05;;;5.30;54.50;;;;;;5000669;28;20082;-74
2022/04/04 07:55:09;;;;;;;5.28;2.53;;;5.20;52.70;;;;;;5002897;28;20442;-74
2022/04/04 07:57:37;;;;;;;6.97;2.90;;;5.20;52.30;;;;;;5001540;28;20049;-75
2022/04/04 08:00:07;;;;;;;7.68;2.60;;;5.30;52.20;;;;;;5018329;28;20134;-73
2022/04/04 08:02:34;;;;;;;56.40;20.42;;;5.30;52.10;;;;;;5000812;28;20057;-73
2022/04/04 08:05:04;;;;;;;5.82;2.60;;;5.40;52.70;;;;;;5001488;28;22474;-71
2022/04/04 08:07:31;;;;;;;3.03;2.17;;;5.50;51.40;;;;;;4987161;28;20524;-73
2022/04/04 08:09:58;;;;;;;4.00;2.47;;;5.40;51.30;;;;;;5007940;28;20129;-73
2022/04/04 08:12:27;;;;;;;5.43;4.10;;;5.40;51.50;;;;;;5003529;28;20049;-73
2022/04/04 08:14:56;;;;;;;5.18;2.67;;;5.60;52.60;;;;;;5001566;28;20037;-72
2022/04/04 08:17:23;;;;;;;6.45;3.63;;;5.80;51.70;;;;;;5002667;28;20090;-73
2022/04/04 08:19:50;;;;;;;6.53;2.83;;;6.00;52.40;;;;;;5001889;28;20076;-75
2022/04/04 08:22:18;;;;;;;6.90;3.83;;;5.90;52.20;;;;;;5004200;28;20447;-73
2022/04/04 08:24:46;;;;;;;5.47;3.22;;;5.80;52.70;;;;;;5003638;28;20049;-74
2022/04/04 08:27:13;;;;;;;4.07;2.63;;;6.00;52.70;;;;;;5008648;28;20053;-73
2022/04/04 08:29:40;;;;;;;3.75;2.50;;;5.90;52.60;;;;;;5018896;28;22492;-71
2022/04/04 08:32:08;;;;;;;6.30;2.13;;;5.90;50.80;;;;;;5007599;28;20048;-71
2022/04/04 08:34:36;;;;;;;4.28;3.33;;;6.20;52.20;;;;;;5001645;28;20430;-71
2022/04/04 08:37:03;;;;;;;5.07;3.17;;;6.20;51.70;;;;;;5001314;28;20785;-71
2022/04/04 08:39:30;;;;;;;6.15;2.75;;;6.40;52.20;;;;;;5001899;28;20132;-71
2022/04/04 08:41:58;;;;;;;5.22;2.92;;;6.40;50.60;;;;;;5019011;28;20061;-73
2022/04/04 08:44:25;;;;;;;4.93;3.08;;;6.40;52.20;;;;;;5005139;28;20054;-71
2022/04/04 08:46:52;;;;;;;3.63;2.67;;;6.30;52.20;;;;;;4999914;28;20049;-71
2022/04/04 08:49:20;;;;;;;6.15;3.95;;;6.40;49.80;;;;;;5020253;28;20060;-72
2022/04/04 08:51:50;;;;;;;7.22;5.05;;;6.40;51.00;;;;;;5021833;28;20045;-72
2022/04/04 08:54:18;;;;;;;3.78;2.20;;;6.30;51.60;;;;;;5003175;28;22408;-73
2022/04/04 08:56:45;;;;;;;5.22;3.53;;;6.40;50.90;;;;;;5005958;28;20049;-73
2022/04/04 08:59:12;;;;;;;9.00;4.57;;;6.40;49.50;;;;;;5022543;28;20041;-73
2022/04/04 09:01:39;;;;;;;15.20;8.48;;;6.60;51.80;;;;;;5005187;28;20057;-71
2022/04/04 09:04:06;;;;;;;7.88;3.22;;;6.70;49.10;;;;;;5005083;28;20077;-72
2022/04/04 09:07:02;;;;;;;8.50;4.57;;;6.80;49.30;;;;;;4984398;28;20068;-74
2022/04/04 09:09:49;;;;;;;3.90;2.45;;;6.80;50.00;;;;;;5010486;28;22043;-75
2022/04/04 09:12:21;;;;;;;5.25;2.40;;;6.80;49.20;;;;;;5002884;28;20079;-76
2022/04/04 09:14:54;;;;;;;3.63;2.40;;;6.60;49.30;;;;;;5018500;28;20053;-73
2022/04/04 09:17:22;;;;;;;;;;;6.70;48.20;;;;;;5003868;28;20053;-71
2022/04/04 09:19:49;;;;;;;5.97;3.63;;;6.80;50.30;;;;;;5002165;28;20826;-74
2022/04/04 09:22:18;;;;;;;20.65;10.65;;;7.00;49.20;;;;;;4992270;28;20997;-74
2022/04/04 09:24:50;;;;;;;58.40;25.48;;;7.00;50.00;;;;;;5010974;28;21163;-72
2022/04/04 09:27:21;;;;;;;106.32;51.97;;;7.30;50.00;;;;;;5019816;28;20049;-74
2022/04/04 09:29:59;;;;;;;5.32;2.70;;;7.00;50.90;;;;;;5007084;28;20051;-75
2022/04/04 09:32:35;;;;;;;5.28;2.70;;;7.10;51.00;;;;;;5003816;28;20185;-73
2022/04/04 09:35:28;;;;;;;13.88;6.53;;;6.90;50.40;;;;;;5017087;28;20071;-74
2022/04/04 09:37:57;;;;;;;5.45;2.83;;;7.10;50.80;;;;;;5004737;28;20057;-73
2022/04/04 09:40:25;;;;;;;4.95;2.83;;;7.20;52.50;;;;;;5004596;28;22466;-74
2022/04/04 09:42:52;;;;;;;21.48;12.27;;;7.20;51.20;;;;;;5002015;28;22463;-73
2022/04/04 09:45:24;;;;;;;8.20;4.30;;;7.70;51.70;;;;;;4998379;28;20048;-73
2022/04/04 09:47:59;;;;;;;22.48;13.48;;;7.80;51.30;;;;;;5006062;28;20045;-73
2022/04/04 09:50:46;;;;;;;12.57;7.50;;;8.00;51.40;;;;;;4984333;28;20050;-73
2022/04/04 09:53:22;;;;;;;14.93;8.40;;;8.00;52.70;;;;;;5019215;28;20923;-74
2022/04/04 09:55:52;;;;;;;19.05;12.20;;;7.60;54.90;;;;;;5000586;28;20053;-74
2022/04/04 09:58:22;;;;;;;28.58;17.35;;;7.40;53.80;;;;;;5003487;28;20049;-73
2022/04/04 10:00:51;;;;;;;17.73;11.82;;;7.80;54.90;;;;;;5000913;28;20103;-74
2022/04/04 10:03:20;;;;;;;7.93;5.10;;;8.30;54.40;;;;;;5009507;28;20053;-74
2022/04/04 10:05:53;;;;;;;30.70;18.38;;;8.60;52.80;;;;;;5002916;28;20045;-73
2022/04/04 10:08:25;;;;;;;9.60;7.13;;;8.10;54.00;;;;;;5017405;28;20049;-74
2022/04/04 10:10:56;;;;;;;6.63;4.93;;;8.40;54.50;;;;;;5022349;28;22492;-75
2022/04/04 10:13:25;;;;;;;16.95;9.60;;;8.30;53.40;;;;;;5003761;28;20053;-74
2022/04/04 10:15:53;;;;;;;21.42;14.48;;;8.10;56.50;;;;;;5009398;28;20548;-75
2022/04/04 10:18:21;;;;;;;8.32;5.35;;;8.50;53.80;;;;;;4993730;28;20121;-73
2022/04/04 10:20:56;;;;;;;9.18;5.65;;;8.00;53.00;;;;;;5001728;28;20049;-76
2022/04/04 10:23:25;;;;;;;9.32;4.43;;;8.30;54.60;;;;;;5008408;28;20111;-76
2022/04/04 10:25:53;;;;;;;11.35;7.63;;;8.00;55.80;;;;;;5004472;28;20137;-73
2022/04/04 10:28:30;;;;;;;21.13;12.13;;;8.30;56.40;;;;;;5007033;28;20071;-74
2022/04/04 10:31:00;;;;;;;15.15;8.98;;;8.10;52.60;;;;;;5008978;28;20052;-74
2022/04/04 10:33:33;;;;;;;16.23;10.40;;;8.30;53.40;;;;;;5006591;28;20120;-75
2022/04/04 10:36:06;;;;;;;11.30;8.23;;;8.70;55.40;;;;;;5004912;28;20092;-73
2022/04/04 10:38:49;;;;;;;9.40;6.25;;;8.70;52.80;;;;;;5007052;28;20411;-74
2022/04/04 10:41:20;;;;;;;;;;;9.00;55.30;;;;;;5000379;28;21932;-74
2022/04/04 10:43:49;;;;;;;8.50;5.22;;;8.80;54.00;;;;;;5005176;28;19928;-74
2022/04/04 10:46:22;;;;;;;6.30;3.10;;;8.90;53.70;;;;;;5007821;28;20060;-74
2022/04/04 10:48:54;;;;;;;7.80;4.75;;;9.10;53.90;;;;;;5004488;28;20065;-75
2022/04/04 10:51:28;;;;;;;;;;;9.00;54.20;;;;;;5005461;28;22245;-73
2022/04/04 10:54:01;;;;;;;5.80;3.88;;;8.70;54.90;;;;;;5003206;28;19936;-76
2022/04/04 10:56:30;;;;;;;6.20;3.88;;;8.10;54.00;;;;;;5019751;28;20049;-75
2022/04/04 10:59:15;;;;;;;9.65;5.88;;;8.00;55.60;;;;;;4990972;28;20045;-75
2022/04/04 11:01:44;;;;;;;9.55;5.47;;;8.20;57.10;;;;;;5005804;28;20817;-74
2022/04/04 11:04:29;;;;;;;8.23;4.68;;;8.30;57.30;;;;;;5003720;28;20060;-75
2022/04/04 11:10:06;;;;;;;7.72;4.85;;;8.00;59.50;;;;;;4995353;28;20053;-76
2022/04/04 11:13:00;;;;;;;8.80;4.90;;;8.30;59.70;;;;;;5025187;28;20057;-75
2022/04/04 11:15:44;;;;;;;6.97;4.35;;;8.50;58.10;;;;;;5000560;28;20045;-77
2022/04/04 11:18:13;;;;;;;7.80;4.68;;;9.00;59.00;;;;;;4987639;28;20494;-76
2022/04/04 11:20:48;;;;;;;7.22;4.45;;;9.10;56.90;;;;;;4986836;28;20262;-75
2022/04/04 11:23:17;;;;;;;7.55;4.45;;;9.10;56.50;;;;;;4989387;28;20290;-75
2022/04/04 11:25:55;;;;;;;6.88;5.30;;;8.70;56.50;;;;;;4989729;28;22166;-77
2022/04/04 11:28:25;;;;;;;9.95;6.40;;;8.60;56.70;;;;;;5003354;28;20716;-75
2022/04/04 11:31:02;;;;;;;8.52;4.72;;;8.50;57.40;;;;;;5011727;28;20516;-75
2022/04/04 11:33:31;;;;;;;8.23;5.20;;;8.60;57.60;;;;;;5009337;28;20045;-75
2022/04/04 11:35:58;;;;;;;9.23;4.28;;;8.40;59.20;;;;;;5009183;28;20443;-73
2022/04/04 11:38:25;;;;;;;7.93;4.50;;;8.40;56.70;;;;;;5010834;28;20049;-74
2022/04/04 11:40:55;;;;;;;9.18;4.45;;;8.20;58.10;;;;;;5005645;28;20076;-74
2022/04/04 11:43:24;;;;;;;6.70;4.40;;;8.10;55.50;;;;;;5000706;28;20057;-73
2022/04/04 11:45:53;;;;;;;8.18;4.68;;;7.80;55.90;;;;;;5003621;28;20831;-74
2022/04/04 11:48:24;;;;;;;7.55;4.72;;;8.10;57.30;;;;;;4989778;28;20057;-77
2022/04/04 11:50:56;;;;;;;17.08;8.65;;;8.30;58.40;;;;;;4989593;28;22666;-73
2022/04/04 11:53:27;;;;;;;52.70;23.25;;;8.20;57.20;;;;;;5009029;28;20963;-75
2022/04/04 11:56:10;;;;;;;40.42;20.10;;;8.00;56.30;;;;;;5009115;28;20095;-76
2022/04/04 11:58:46;;;;;;;;;;;8.20;58.20;;;;;;5007846;28;20049;-75
2022/04/04 12:01:13;;;;;;;;;;;8.40;56.90;;;;;;5005132;28;19968;-75
2022/04/04 12:03:43;;;;;;;;;;;8.40;58.00;;;;;;5006984;28;19924;-76
2022/04/04 12:06:10;;;;;;;;;;;8.30;58.20;;;;;;5016139;28;19929;-77
2022/04/04 12:08:42;;;;;;;;;;;8.20;58.00;;;;;;5007874;28;19928;-75
2022/04/04 12:11:10;;;;;;;;;;;8.20;57.80;;;;;;5008807;28;22481;-75
2022/04/04 12:13:49;;;;;;;;;;;8.90;59.70;;;;;;5007972;28;20461;-73
2022/04/04 12:16:16;;;;;;;;;;;8.70;58.70;;;;;;4987902;28;19935;-75
2022/04/04 12:18:51;;;;;;;;;;;8.30;59.70;;;;;;4991429;28;21945;-74
2022/04/04 12:21:20;;;;;;;;;;;8.40;61.40;;;;;;5004904;28;20078;-75
2022/04/04 12:26:35;;;;;;;;;;;8.30;60.30;;;;;;4989536;28;19929;-77
2022/04/04 12:29:09;;;;;;;;;;;8.20;60.50;;;;;;4978949;28;19929;-75
2022/04/04 12:31:36;;;;;;;;;;;8.30;62.70;;;;;;5009550;28;19929;-75
2022/04/04 12:34:10;;;;;;;;;;;8.10;60.30;;;;;;5002191;28;20854;-73
2022/04/04 12:36:38;;;;;;;;;;;8.30;60.90;;;;;;5000620;28;19936;-74
2022/04/04 12:39:06;;;;;;;;;;;8.10;59.20;;;;;;5005630;28;19929;-73
2022/04/04 12:41:43;;;;;;;;;;;8.20;59.90;;;;;;5007862;28;19936;-75
2022/04/04 12:44:11;;;;;;;;;;;8.20;59.60;;;;;;5030022;28;20052;-75
2022/04/04 12:46:38;;;;;;;;;;;8.30;60.20;;;;;;5004344;28;19968;-73
2022/04/04 12:49:08;;;;;;;;;;;8.60;60.20;;;;;;5008988;28;19973;-73
2022/04/04 12:51:35;;;;;;;;;;;9.10;58.00;;;;;;5008365;28;20680;-75
2022/04/04 12:54:02;;;;;;;;;;;9.30;57.20;;;;;;5023874;28;20084;-73
2022/04/04 12:56:31;;;;;;;;;;;9.00;58.40;;;;;;5008376;28;19929;-74
2022/04/04 12:59:05;;;;;;;;;;;8.90;57.50;;;;;;5006462;28;19928;-77
2022/04/04 13:01:33;;;;;;;;;;;9.20;58.40;;;;;;5021856;28;19937;-73
2022/04/04 13:04:00;;;;;;;;;;;9.60;55.90;;;;;;5000192;28;19987;-74
2022/04/04 13:06:31;;;;;;;;;;;9.80;57.20;;;;;;5010521;28;21993;-73
2022/04/04 13:09:00;;;;;;;;;;;9.80;56.90;;;;;;5012301;28;19929;-72
2022/04/04 13:11:28;;;;;;;;;;;9.40;56.80;;;;;;5011420;28;21956;-75
2022/04/04 13:14:05;;;;;;;;;;;8.90;59.40;;;;;;5017921;28;19935;-73
2022/04/04 13:16:33;;;;;;;;;;;8.60;60.90;;;;;;5017461;28;19935;-73